sensor_id;sensor_type;location;lat;lon;timestamp;P1;durP1;ratioP1;P2;durP2;ratioP2
52480;SDS011;38393;52.404;13.532;2023-06-14T00:00:36;1.90;;;1.27;;
52480;SDS011;38393;52.404;13.532;2023-06-14T00:03:04;2.67;;;1.20;;
52480;SDS011;38393;52.404;13.532;2023-06-14T00:05:29;1.83;;;1.20;;
52480;SDS011;38393;52.404;13.532;2023-06-14T00:07:58;2.63;;;1.47;;
52480;SDS011;38393;52.404;13.532;2023-06-14T00:10:25;1.83;;;1.47;;
52480;SDS011;38393;52.404;13.532;2023-06-14T00:12:55;2.07;;;1.40;;
52480;SDS011;38393;52.404;13.532;2023-06-14T00:15:21;5.33;;;1.50;;
52480;SDS011;38393;52.404;13.532;2023-06-14T00:17:48;2.17;;;1.47;;
52480;SDS011;38393;52.404;13.532;2023-06-14T00:20:14;7.50;;;2.10;;
52480;SDS011;38393;52.404;13.532;2023-06-14T00:22:39;1.90;;;1.43;;
52480;SDS011;38393;52.404;13.532;2023-06-14T00:25:05;1.70;;;1.23;;
52480;SDS011;38393;52.404;13.532;2023-06-14T00:27:31;1.97;;;1.40;;
52480;SDS011;38393;52.404;13.532;2023-06-14T00:29:56;9.37;;;1.43;;
52480;SDS011;38393;52.404;13.532;2023-06-14T00:32:23;2.00;;;1.50;;
52480;SDS011;38393;52.404;13.532;2023-06-14T00:34:50;2.60;;;1.60;;
52480;SDS011;38393;52.404;13.532;2023-06-14T00:37:16;4.77;;;1.70;;
52480;SDS011;38393;52.404;13.532;2023-06-14T00:39:41;2.97;;;1.57;;
52480;SDS011;38393;52.404;13.532;2023-06-14T00:42:07;1.90;;;1.30;;
52480;SDS011;38393;52.404;13.532;2023-06-14T00:44:32;1.53;;;1.17;;
52480;SDS011;38393;52.404;13.532;2023-06-14T00:46:58;1.83;;;1.33;;
52480;SDS011;38393;52.404;13.532;2023-06-14T00:49:23;1.80;;;1.30;;
52480;SDS011;38393;52.404;13.532;2023-06-14T00:51:49;3.13;;;1.73;;
52480;SDS011;38393;52.404;13.532;2023-06-14T00:54:16;2.83;;;1.53;;
52480;SDS011;38393;52.404;13.532;2023-06-14T00:56:41;4.03;;;1.80;;
52480;SDS011;38393;52.404;13.532;2023-06-14T00:59:09;2.20;;;1.53;;
52480;SDS011;38393;52.404;13.532;2023-06-14T01:01:36;3.77;;;1.83;;
52480;SDS011;38393;52.404;13.532;2023-06-14T01:04:01;2.80;;;1.80;;
52480;SDS011;38393;52.404;13.532;2023-06-14T01:06:33;2.00;;;1.60;;
52480;SDS011;38393;52.404;13.532;2023-06-14T01:09:14;1.80;;;1.50;;
52480;SDS011;38393;52.404;13.532;2023-06-14T01:11:59;3.27;;;1.60;;
52480;SDS011;38393;52.404;13.532;2023-06-14T01:14:29;3.17;;;2.00;;
52480;SDS011;38393;52.404;13.532;2023-06-14T01:16:57;3.27;;;1.67;;
52480;SDS011;38393;52.404;13.532;2023-06-14T01:19:25;2.27;;;1.53;;
52480;SDS011;38393;52.404;13.532;2023-06-14T01:21:53;2.30;;;1.60;;
52480;SDS011;38393;52.404;13.532;2023-06-14T01:24:21;3.17;;;1.70;;
52480;SDS011;38393;52.404;13.532;2023-06-14T01:26:50;2.93;;;1.80;;
52480;SDS011;38393;52.404;13.532;2023-06-14T01:29:20;3.30;;;1.90;;
52480;SDS011;38393;52.404;13.532;2023-06-14T01:31:47;2.67;;;1.80;;
52480;SDS011;38393;52.404;13.532;2023-06-14T01:34:13;3.73;;;1.80;;
52480;SDS011;38393;52.404;13.532;2023-06-14T01:36:40;3.30;;;2.00;;
52480;SDS011;38393;52.404;13.532;2023-06-14T01:39:08;4.57;;;2.07;;
52480;SDS011;38393;52.404;13.532;2023-06-14T01:41:36;3.43;;;1.93;;
52480;SDS011;38393;52.404;13.532;2023-06-14T01:44:02;2.67;;;1.77;;
52480;SDS011;38393;52.404;13.532;2023-06-14T01:46:29;3.07;;;2.10;;
52480;SDS011;38393;52.404;13.532;2023-06-14T01:48:55;3.13;;;1.97;;
52480;SDS011;38393;52.404;13.532;2023-06-14T01:51:21;6.47;;;2.57;;
52480;SDS011;38393;52.404;13.532;2023-06-14T01:53:46;4.33;;;2.30;;
52480;SDS011;38393;52.404;13.532;2023-06-14T01:56:13;4.23;;;1.97;;
52480;SDS011;38393;52.404;13.532;2023-06-14T01:58:38;4.23;;;2.00;;
52480;SDS011;38393;52.404;13.532;2023-06-14T02:01:05;6.27;;;2.10;;
52480;SDS011;38393;52.404;13.532;2023-06-14T02:03:31;8.57;;;1.80;;
52480;SDS011;38393;52.404;13.532;2023-06-14T02:05:57;3.40;;;1.90;;
52480;SDS011;38393;52.404;13.532;2023-06-14T02:08:23;4.83;;;2.20;;
52480;SDS011;38393;52.404;13.532;2023-06-14T02:10:48;3.80;;;2.03;;
52480;SDS011;38393;52.404;13.532;2023-06-14T02:13:14;3.13;;;2.00;;
52480;SDS011;38393;52.404;13.532;2023-06-14T02:15:39;3.10;;;2.17;;
52480;SDS011;38393;52.404;13.532;2023-06-14T02:18:08;3.97;;;2.00;;
52480;SDS011;38393;52.404;13.532;2023-06-14T02:20:34;3.50;;;2.00;;
52480;SDS011;38393;52.404;13.532;2023-06-14T02:23:00;7.03;;;2.33;;
52480;SDS011;38393;52.404;13.532;2023-06-14T02:25:25;4.37;;;2.57;;
52480;SDS011;38393;52.404;13.532;2023-06-14T02:27:52;4.07;;;2.57;;
52480;SDS011;38393;52.404;13.532;2023-06-14T02:30:18;4.23;;;2.27;;
52480;SDS011;38393;52.404;13.532;2023-06-14T02:32:44;4.10;;;2.07;;
52480;SDS011;38393;52.404;13.532;2023-06-14T02:35:10;5.37;;;2.80;;
52480;SDS011;38393;52.404;13.532;2023-06-14T02:37:35;4.17;;;2.43;;
52480;SDS011;38393;52.404;13.532;2023-06-14T02:40:01;3.23;;;2.30;;
52480;SDS011;38393;52.404;13.532;2023-06-14T02:42:26;4.87;;;2.40;;
52480;SDS011;38393;52.404;13.532;2023-06-14T02:44:52;3.17;;;2.03;;
52480;SDS011;38393;52.404;13.532;2023-06-14T02:47:17;4.07;;;2.60;;
52480;SDS011;38393;52.404;13.532;2023-06-14T02:49:43;4.00;;;2.50;;
52480;SDS011;38393;52.404;13.532;2023-06-14T02:52:11;3.77;;;2.47;;
52480;SDS011;38393;52.404;13.532;2023-06-14T02:54:36;3.23;;;2.33;;
52480;SDS011;38393;52.404;13.532;2023-06-14T02:57:02;2.83;;;2.00;;
52480;SDS011;38393;52.404;13.532;2023-06-14T02:59:28;4.17;;;2.40;;
52480;SDS011;38393;52.404;13.532;2023-06-14T03:01:53;2.90;;;2.20;;
52480;SDS011;38393;52.404;13.532;2023-06-14T03:04:19;5.47;;;3.00;;
52480;SDS011;38393;52.404;13.532;2023-06-14T03:06:45;4.50;;;2.53;;
52480;SDS011;38393;52.404;13.532;2023-06-14T03:09:15;6.17;;;2.47;;
52480;SDS011;38393;52.404;13.532;2023-06-14T03:11:40;3.27;;;2.03;;
52480;SDS011;38393;52.404;13.532;2023-06-14T03:14:06;3.67;;;2.50;;
52480;SDS011;38393;52.404;13.532;2023-06-14T03:16:33;3.50;;;2.40;;
52480;SDS011;38393;52.404;13.532;2023-06-14T03:18:58;3.83;;;2.03;;
52480;SDS011;38393;52.404;13.532;2023-06-14T03:21:24;6.73;;;2.57;;
52480;SDS011;38393;52.404;13.532;2023-06-14T03:23:50;4.50;;;2.77;;
52480;SDS011;38393;52.404;13.532;2023-06-14T03:26:17;2.67;;;2.30;;
52480;SDS011;38393;52.404;13.532;2023-06-14T03:28:43;6.43;;;2.50;;
52480;SDS011;38393;52.404;13.532;2023-06-14T03:31:10;4.00;;;2.40;;
52480;SDS011;38393;52.404;13.532;2023-06-14T03:33:36;3.90;;;2.30;;
52480;SDS011;38393;52.404;13.532;2023-06-14T03:36:02;3.47;;;2.20;;
52480;SDS011;38393;52.404;13.532;2023-06-14T03:38:28;6.93;;;2.60;;
52480;SDS011;38393;52.404;13.532;2023-06-14T03:40:53;4.00;;;2.47;;
52480;SDS011;38393;52.404;13.532;2023-06-14T03:43:19;4.13;;;2.73;;
52480;SDS011;38393;52.404;13.532;2023-06-14T03:45:44;7.93;;;2.70;;
52480;SDS011;38393;52.404;13.532;2023-06-14T03:48:10;4.20;;;2.50;;
52480;SDS011;38393;52.404;13.532;2023-06-14T03:50:35;5.33;;;2.60;;
52480;SDS011;38393;52.404;13.532;2023-06-14T03:53:02;6.57;;;2.93;;
52480;SDS011;38393;52.404;13.532;2023-06-14T03:55:28;5.30;;;2.70;;
52480;SDS011;38393;52.404;13.532;2023-06-14T03:57:56;8.17;;;2.27;;
52480;SDS011;38393;52.404;13.532;2023-06-14T04:00:21;4.07;;;2.57;;
52480;SDS011;38393;52.404;13.532;2023-06-14T04:02:47;4.63;;;2.57;;
52480;SDS011;38393;52.404;13.532;2023-06-14T04:05:13;4.00;;;2.47;;
52480;SDS011;38393;52.404;13.532;2023-06-14T04:07:40;4.73;;;2.37;;
52480;SDS011;38393;52.404;13.532;2023-06-14T04:10:10;4.33;;;2.80;;
52480;SDS011;38393;52.404;13.532;2023-06-14T04:12:39;9.13;;;2.70;;
52480;SDS011;38393;52.404;13.532;2023-06-14T04:15:05;5.40;;;2.80;;
52480;SDS011;38393;52.404;13.532;2023-06-14T04:17:31;4.17;;;2.70;;
52480;SDS011;38393;52.404;13.532;2023-06-14T04:20:00;4.33;;;2.73;;
52480;SDS011;38393;52.404;13.532;2023-06-14T04:22:28;3.60;;;2.53;;
52480;SDS011;38393;52.404;13.532;2023-06-14T04:24:55;5.43;;;2.40;;
52480;SDS011;38393;52.404;13.532;2023-06-14T04:27:24;9.00;;;2.87;;
52480;SDS011;38393;52.404;13.532;2023-06-14T04:29:54;9.73;;;2.80;;
52480;SDS011;38393;52.404;13.532;2023-06-14T04:32:24;4.83;;;2.87;;
52480;SDS011;38393;52.404;13.532;2023-06-14T04:34:51;5.53;;;2.90;;
52480;SDS011;38393;52.404;13.532;2023-06-14T04:37:24;4.13;;;2.47;;
52480;SDS011;38393;52.404;13.532;2023-06-14T04:39:51;5.77;;;2.70;;
52480;SDS011;38393;52.404;13.532;2023-06-14T04:42:17;4.77;;;2.73;;
52480;SDS011;38393;52.404;13.532;2023-06-14T04:44:45;5.70;;;3.10;;
52480;SDS011;38393;52.404;13.532;2023-06-14T04:47:12;5.30;;;2.90;;
52480;SDS011;38393;52.404;13.532;2023-06-14T04:49:39;5.77;;;2.83;;
52480;SDS011;38393;52.404;13.532;2023-06-14T04:52:05;8.33;;;2.87;;
52480;SDS011;38393;52.404;13.532;2023-06-14T04:54:31;5.87;;;2.60;;
52480;SDS011;38393;52.404;13.532;2023-06-14T04:56:58;6.27;;;2.93;;
52480;SDS011;38393;52.404;13.532;2023-06-14T04:59:24;5.37;;;3.37;;
52480;SDS011;38393;52.404;13.532;2023-06-14T05:01:50;5.80;;;3.03;;
52480;SDS011;38393;52.404;13.532;2023-06-14T05:04:16;3.30;;;2.20;;
52480;SDS011;38393;52.404;13.532;2023-06-14T05:06:43;5.57;;;2.63;;
52480;SDS011;38393;52.404;13.532;2023-06-14T05:09:10;5.50;;;2.40;;
52480;SDS011;38393;52.404;13.532;2023-06-14T05:11:39;4.27;;;2.47;;
52480;SDS011;38393;52.404;13.532;2023-06-14T05:14:04;7.27;;;2.97;;
52480;SDS011;38393;52.404;13.532;2023-06-14T05:16:31;7.50;;;2.80;;
52480;SDS011;38393;52.404;13.532;2023-06-14T05:18:56;6.30;;;3.03;;
52480;SDS011;38393;52.404;13.532;2023-06-14T05:21:23;4.60;;;2.90;;
52480;SDS011;38393;52.404;13.532;2023-06-14T05:23:48;15.07;;;3.13;;
52480;SDS011;38393;52.404;13.532;2023-06-14T05:26:15;4.97;;;2.67;;
52480;SDS011;38393;52.404;13.532;2023-06-14T05:28:41;4.83;;;3.00;;
52480;SDS011;38393;52.404;13.532;2023-06-14T05:31:06;4.03;;;2.40;;
52480;SDS011;38393;52.404;13.532;2023-06-14T05:33:32;4.63;;;2.88;;
52480;SDS011;38393;52.404;13.532;2023-06-14T05:35:57;5.22;;;2.83;;
52480;SDS011;38393;52.404;13.532;2023-06-14T05:38:22;4.65;;;3.05;;
52480;SDS011;38393;52.404;13.532;2023-06-14T05:40:48;7.80;;;2.92;;
52480;SDS011;38393;52.404;13.532;2023-06-14T05:43:13;7.47;;;3.10;;
52480;SDS011;38393;52.404;13.532;2023-06-14T05:45:39;5.85;;;3.13;;
52480;SDS011;38393;52.404;13.532;2023-06-14T05:48:04;4.85;;;2.65;;
52480;SDS011;38393;52.404;13.532;2023-06-14T05:50:30;4.47;;;2.75;;
52480;SDS011;38393;52.404;13.532;2023-06-14T05:52:56;5.23;;;2.80;;
52480;SDS011;38393;52.404;13.532;2023-06-14T05:55:21;6.10;;;3.10;;
52480;SDS011;38393;52.404;13.532;2023-06-14T05:57:47;7.63;;;3.33;;
52480;SDS011;38393;52.404;13.532;2023-06-14T06:00:13;6.57;;;3.00;;
52480;SDS011;38393;52.404;13.532;2023-06-14T06:02:40;4.87;;;2.80;;
52480;SDS011;38393;52.404;13.532;2023-06-14T06:05:12;5.63;;;3.03;;
52480;SDS011;38393;52.404;13.532;2023-06-14T06:07:38;12.80;;;3.60;;
52480;SDS011;38393;52.404;13.532;2023-06-14T06:10:05;8.38;;;4.40;;
52480;SDS011;38393;52.404;13.532;2023-06-14T06:12:31;5.32;;;3.10;;
52480;SDS011;38393;52.404;13.532;2023-06-14T06:14:57;5.82;;;3.05;;
52480;SDS011;38393;52.404;13.532;2023-06-14T06:17:24;10.20;;;3.23;;
52480;SDS011;38393;52.404;13.532;2023-06-14T06:19:53;7.73;;;3.57;;
52480;SDS011;38393;52.404;13.532;2023-06-14T06:22:19;7.05;;;3.17;;
52480;SDS011;38393;52.404;13.532;2023-06-14T06:24:44;4.82;;;2.80;;
52480;SDS011;38393;52.404;13.532;2023-06-14T06:27:10;5.75;;;2.95;;
52480;SDS011;38393;52.404;13.532;2023-06-14T06:29:37;6.37;;;3.17;;
52480;SDS011;38393;52.404;13.532;2023-06-14T06:32:02;12.73;;;3.07;;
52480;SDS011;38393;52.404;13.532;2023-06-14T06:34:28;5.33;;;3.13;;
52480;SDS011;38393;52.404;13.532;2023-06-14T06:36:54;4.55;;;2.90;;
52480;SDS011;38393;52.404;13.532;2023-06-14T06:39:20;6.17;;;3.47;;
52480;SDS011;38393;52.404;13.532;2023-06-14T06:41:45;7.70;;;3.30;;
52480;SDS011;38393;52.404;13.532;2023-06-14T06:44:11;5.70;;;2.97;;
52480;SDS011;38393;52.404;13.532;2023-06-14T06:46:37;4.68;;;2.55;;
52480;SDS011;38393;52.404;13.532;2023-06-14T06:49:07;6.18;;;2.90;;
52480;SDS011;38393;52.404;13.532;2023-06-14T06:51:34;4.47;;;2.80;;
52480;SDS011;38393;52.404;13.532;2023-06-14T06:54:01;10.63;;;3.30;;
52480;SDS011;38393;52.404;13.532;2023-06-14T06:56:27;5.35;;;2.60;;
52480;SDS011;38393;52.404;13.532;2023-06-14T06:58:53;6.68;;;3.05;;
52480;SDS011;38393;52.404;13.532;2023-06-14T07:01:18;5.35;;;2.90;;
52480;SDS011;38393;52.404;13.532;2023-06-14T07:03:44;4.70;;;2.97;;
52480;SDS011;38393;52.404;13.532;2023-06-14T07:06:10;4.97;;;2.97;;
52480;SDS011;38393;52.404;13.532;2023-06-14T07:08:36;7.30;;;2.90;;
52480;SDS011;38393;52.404;13.532;2023-06-14T07:11:03;5.15;;;2.83;;
52480;SDS011;38393;52.404;13.532;2023-06-14T07:13:29;6.20;;;3.28;;
52480;SDS011;38393;52.404;13.532;2023-06-14T07:15:56;5.00;;;2.88;;
52480;SDS011;38393;52.404;13.532;2023-06-14T07:18:23;6.45;;;2.78;;
52480;SDS011;38393;52.404;13.532;2023-06-14T07:20:49;4.43;;;2.45;;
52480;SDS011;38393;52.404;13.532;2023-06-14T07:23:15;3.72;;;2.30;;
52480;SDS011;38393;52.404;13.532;2023-06-14T07:25:40;4.18;;;2.63;;
52480;SDS011;38393;52.404;13.532;2023-06-14T07:28:06;4.00;;;2.45;;
52480;SDS011;38393;52.404;13.532;2023-06-14T07:30:32;6.80;;;3.83;;
52480;SDS011;38393;52.404;13.532;2023-06-14T07:32:57;4.10;;;2.50;;
52480;SDS011;38393;52.404;13.532;2023-06-14T07:35:23;4.93;;;2.67;;
52480;SDS011;38393;52.404;13.532;2023-06-14T07:37:48;3.75;;;2.40;;
52480;SDS011;38393;52.404;13.532;2023-06-14T07:40:14;5.15;;;2.80;;
52480;SDS011;38393;52.404;13.532;2023-06-14T07:42:40;5.28;;;2.38;;
52480;SDS011;38393;52.404;13.532;2023-06-14T07:45:05;4.80;;;2.90;;
52480;SDS011;38393;52.404;13.532;2023-06-14T07:47:32;9.07;;;4.03;;
52480;SDS011;38393;52.404;13.532;2023-06-14T07:49:58;5.32;;;2.70;;
52480;SDS011;38393;52.404;13.532;2023-06-14T07:52:23;5.22;;;2.40;;
52480;SDS011;38393;52.404;13.532;2023-06-14T07:54:49;4.68;;;2.53;;
52480;SDS011;38393;52.404;13.532;2023-06-14T07:57:15;4.53;;;2.40;;
52480;SDS011;38393;52.404;13.532;2023-06-14T07:59:40;7.32;;;2.90;;
52480;SDS011;38393;52.404;13.532;2023-06-14T08:02:06;4.60;;;2.17;;
52480;SDS011;38393;52.404;13.532;2023-06-14T08:04:32;3.65;;;2.35;;
52480;SDS011;38393;52.404;13.532;2023-06-14T08:06:58;4.15;;;2.40;;
52480;SDS011;38393;52.404;13.532;2023-06-14T08:09:24;5.07;;;2.60;;
52480;SDS011;38393;52.404;13.532;2023-06-14T08:11:50;7.43;;;2.20;;
52480;SDS011;38393;52.404;13.532;2023-06-14T08:14:15;3.70;;;2.33;;
52480;SDS011;38393;52.404;13.532;2023-06-14T08:16:41;4.25;;;2.42;;
52480;SDS011;38393;52.404;13.532;2023-06-14T08:19:06;3.50;;;2.03;;
52480;SDS011;38393;52.404;13.532;2023-06-14T08:21:32;4.00;;;2.33;;
52480;SDS011;38393;52.404;13.532;2023-06-14T08:23:58;2.80;;;1.88;;
52480;SDS011;38393;52.404;13.532;2023-06-14T08:26:24;2.78;;;2.10;;
52480;SDS011;38393;52.404;13.532;2023-06-14T08:28:54;3.42;;;1.90;;
52480;SDS011;38393;52.404;13.532;2023-06-14T08:31:20;4.15;;;2.08;;
52480;SDS011;38393;52.404;13.532;2023-06-14T08:33:46;2.45;;;1.85;;
52480;SDS011;38393;52.404;13.532;2023-06-14T08:36:11;3.10;;;2.03;;
52480;SDS011;38393;52.404;13.532;2023-06-14T08:38:37;6.13;;;2.78;;
52480;SDS011;38393;52.404;13.532;2023-06-14T08:41:03;4.40;;;2.50;;
52480;SDS011;38393;52.404;13.532;2023-06-14T08:43:31;3.30;;;2.10;;
52480;SDS011;38393;52.404;13.532;2023-06-14T08:46:00;6.43;;;2.40;;
52480;SDS011;38393;52.404;13.532;2023-06-14T08:48:28;3.63;;;2.17;;
52480;SDS011;38393;52.404;13.532;2023-06-14T08:50:54;4.82;;;2.13;;
52480;SDS011;38393;52.404;13.532;2023-06-14T08:53:26;3.60;;;2.00;;
52480;SDS011;38393;52.404;13.532;2023-06-14T08:55:53;13.57;;;2.38;;
52480;SDS011;38393;52.404;13.532;2023-06-14T08:58:20;2.75;;;1.73;;
52480;SDS011;38393;52.404;13.532;2023-06-14T09:00:49;3.63;;;1.88;;
52480;SDS011;38393;52.404;13.532;2023-06-14T09:03:17;5.32;;;2.00;;
52480;SDS011;38393;52.404;13.532;2023-06-14T09:05:45;3.17;;;1.80;;
52480;SDS011;38393;52.404;13.532;2023-06-14T09:08:12;3.45;;;1.90;;
52480;SDS011;38393;52.404;13.532;2023-06-14T09:10:37;3.50;;;1.83;;
52480;SDS011;38393;52.404;13.532;2023-06-14T09:13:05;2.72;;;1.60;;
52480;SDS011;38393;52.404;13.532;2023-06-14T09:15:31;3.17;;;2.00;;
52480;SDS011;38393;52.404;13.532;2023-06-14T09:17:57;3.65;;;1.95;;
52480;SDS011;38393;52.404;13.532;2023-06-14T09:20:23;2.83;;;1.85;;
52480;SDS011;38393;52.404;13.532;2023-06-14T09:22:49;2.78;;;1.80;;
52480;SDS011;38393;52.404;13.532;2023-06-14T09:25:15;1.60;;;1.35;;
52480;SDS011;38393;52.404;13.532;2023-06-14T09:27:41;2.28;;;1.42;;
52480;SDS011;38393;52.404;13.532;2023-06-14T09:30:08;2.65;;;1.80;;
52480;SDS011;38393;52.404;13.532;2023-06-14T09:32:37;3.65;;;1.85;;
52480;SDS011;38393;52.404;13.532;2023-06-14T09:35:05;2.95;;;2.00;;
52480;SDS011;38393;52.404;13.532;2023-06-14T09:37:31;2.42;;;1.63;;
52480;SDS011;38393;52.404;13.532;2023-06-14T09:39:58;2.88;;;1.90;;
52480;SDS011;38393;52.404;13.532;2023-06-14T09:42:24;2.58;;;1.60;;
52480;SDS011;38393;52.404;13.532;2023-06-14T09:44:50;2.42;;;1.60;;
52480;SDS011;38393;52.404;13.532;2023-06-14T09:47:17;3.00;;;1.80;;
52480;SDS011;38393;52.404;13.532;2023-06-14T09:49:43;3.33;;;1.92;;
52480;SDS011;38393;52.404;13.532;2023-06-14T09:52:13;2.78;;;1.42;;
52480;SDS011;38393;52.404;13.532;2023-06-14T09:54:43;3.00;;;1.88;;
52480;SDS011;38393;52.404;13.532;2023-06-14T09:57:12;3.47;;;1.95;;
52480;SDS011;38393;52.404;13.532;2023-06-14T09:59:42;3.10;;;1.50;;
52480;SDS011;38393;52.404;13.532;2023-06-14T10:02:18;3.53;;;1.88;;
52480;SDS011;38393;52.404;13.532;2023-06-14T10:05:02;3.08;;;1.90;;
52480;SDS011;38393;52.404;13.532;2023-06-14T10:07:30;3.97;;;1.83;;
52480;SDS011;38393;52.404;13.532;2023-06-14T10:10:03;2.63;;;1.77;;
52480;SDS011;38393;52.404;13.532;2023-06-14T10:12:30;4.88;;;1.83;;
52480;SDS011;38393;52.404;13.532;2023-06-14T10:14:56;2.85;;;1.98;;
52480;SDS011;38393;52.404;13.532;2023-06-14T10:17:32;2.90;;;1.73;;
52480;SDS011;38393;52.404;13.532;2023-06-14T10:20:17;3.17;;;1.88;;
52480;SDS011;38393;52.404;13.532;2023-06-14T10:22:49;2.72;;;1.80;;
52480;SDS011;38393;52.404;13.532;2023-06-14T10:25:27;3.05;;;1.98;;
52480;SDS011;38393;52.404;13.532;2023-06-14T10:30:38;3.42;;;2.05;;
52480;SDS011;38393;52.404;13.532;2023-06-14T10:33:04;3.30;;;1.50;;
52480;SDS011;38393;52.404;13.532;2023-06-14T10:35:35;3.55;;;1.80;;
52480;SDS011;38393;52.404;13.532;2023-06-14T10:38:07;2.50;;;1.70;;
52480;SDS011;38393;52.404;13.532;2023-06-14T10:40:53;3.70;;;1.90;;
52480;SDS011;38393;52.404;13.532;2023-06-14T10:43:20;3.45;;;1.67;;
52480;SDS011;38393;52.404;13.532;2023-06-14T10:48:41;2.13;;;1.50;;
52480;SDS011;38393;52.404;13.532;2023-06-14T10:51:18;3.00;;;1.80;;
52480;SDS011;38393;52.404;13.532;2023-06-14T10:53:46;3.25;;;1.70;;
52480;SDS011;38393;52.404;13.532;2023-06-14T10:56:36;3.88;;;1.73;;
52480;SDS011;38393;52.404;13.532;2023-06-14T10:59:00;4.85;;;1.60;;
52480;SDS011;38393;52.404;13.532;2023-06-14T11:01:34;2.88;;;1.73;;
52480;SDS011;38393;52.404;13.532;2023-06-14T11:04:11;2.72;;;1.60;;
52480;SDS011;38393;52.404;13.532;2023-06-14T11:06:50;2.60;;;1.83;;
52480;SDS011;38393;52.404;13.532;2023-06-14T11:09:36;2.58;;;1.73;;
52480;SDS011;38393;52.404;13.532;2023-06-14T11:12:16;3.42;;;2.22;;
52480;SDS011;38393;52.404;13.532;2023-06-14T11:14:45;3.22;;;1.98;;
52480;SDS011;38393;52.404;13.532;2023-06-14T11:17:12;2.38;;;1.90;;
52480;SDS011;38393;52.404;13.532;2023-06-14T11:19:38;2.55;;;1.90;;
52480;SDS011;38393;52.404;13.532;2023-06-14T11:22:03;3.08;;;1.60;;
52480;SDS011;38393;52.404;13.532;2023-06-14T11:24:29;3.10;;;2.03;;
52480;SDS011;38393;52.404;13.532;2023-06-14T11:26:57;3.80;;;2.10;;
52480;SDS011;38393;52.404;13.532;2023-06-14T11:29:22;3.17;;;1.90;;
52480;SDS011;38393;52.404;13.532;2023-06-14T11:31:48;3.92;;;2.05;;
52480;SDS011;38393;52.404;13.532;2023-06-14T11:34:13;2.97;;;1.67;;
52480;SDS011;38393;52.404;13.532;2023-06-14T11:36:39;3.10;;;1.88;;
52480;SDS011;38393;52.404;13.532;2023-06-14T11:39:05;3.55;;;2.05;;
52480;SDS011;38393;52.404;13.532;2023-06-14T11:41:36;3.45;;;1.80;;
52480;SDS011;38393;52.404;13.532;2023-06-14T11:44:06;3.60;;;1.98;;
52480;SDS011;38393;52.404;13.532;2023-06-14T11:46:32;5.22;;;2.20;;
52480;SDS011;38393;52.404;13.532;2023-06-14T11:48:58;2.55;;;1.63;;
52480;SDS011;38393;52.404;13.532;2023-06-14T11:51:27;2.83;;;1.83;;
52480;SDS011;38393;52.404;13.532;2023-06-14T11:53:54;2.80;;;1.90;;
52480;SDS011;38393;52.404;13.532;2023-06-14T11:56:19;8.23;;;2.30;;
52480;SDS011;38393;52.404;13.532;2023-06-14T11:58:45;2.63;;;1.75;;
52480;SDS011;38393;52.404;13.532;2023-06-14T12:01:16;4.82;;;2.00;;
52480;SDS011;38393;52.404;13.532;2023-06-14T12:03:47;3.05;;;1.80;;
52480;SDS011;38393;52.404;13.532;2023-06-14T12:06:13;2.40;;;1.80;;
52480;SDS011;38393;52.404;13.532;2023-06-14T12:08:39;4.97;;;1.95;;
52480;SDS011;38393;52.404;13.532;2023-06-14T12:11:10;2.72;;;1.77;;
52480;SDS011;38393;52.404;13.532;2023-06-14T12:13:38;3.17;;;1.80;;
52480;SDS011;38393;52.404;13.532;2023-06-14T12:16:06;2.33;;;1.65;;
52480;SDS011;38393;52.404;13.532;2023-06-14T12:18:36;2.85;;;1.65;;
52480;SDS011;38393;52.404;13.532;2023-06-14T12:21:06;4.13;;;1.92;;
52480;SDS011;38393;52.404;13.532;2023-06-14T12:23:43;2.72;;;1.80;;
52480;SDS011;38393;52.404;13.532;2023-06-14T12:26:11;3.03;;;1.77;;
52480;SDS011;38393;52.404;13.532;2023-06-14T12:28:41;3.55;;;1.70;;
52480;SDS011;38393;52.404;13.532;2023-06-14T12:31:08;4.15;;;1.90;;
52480;SDS011;38393;52.404;13.532;2023-06-14T12:33:33;2.42;;;1.60;;
52480;SDS011;38393;52.404;13.532;2023-06-14T12:35:59;3.22;;;1.95;;
52480;SDS011;38393;52.404;13.532;2023-06-14T12:38:24;3.35;;;1.70;;
52480;SDS011;38393;52.404;13.532;2023-06-14T12:40:50;3.20;;;1.90;;
52480;SDS011;38393;52.404;13.532;2023-06-14T12:43:16;3.25;;;1.80;;
52480;SDS011;38393;52.404;13.532;2023-06-14T12:45:41;3.70;;;1.65;;
52480;SDS011;38393;52.404;13.532;2023-06-14T12:48:06;4.60;;;1.88;;
52480;SDS011;38393;52.404;13.532;2023-06-14T12:50:33;4.15;;;2.10;;
52480;SDS011;38393;52.404;13.532;2023-06-14T12:52:59;4.60;;;1.85;;
52480;SDS011;38393;52.404;13.532;2023-06-14T12:55:24;2.92;;;1.70;;
52480;SDS011;38393;52.404;13.532;2023-06-14T12:57:50;4.60;;;1.85;;
52480;SDS011;38393;52.404;13.532;2023-06-14T13:00:16;2.60;;;1.50;;
52480;SDS011;38393;52.404;13.532;2023-06-14T13:02:43;2.38;;;1.65;;
52480;SDS011;38393;52.404;13.532;2023-06-14T13:05:08;4.35;;;1.75;;
52480;SDS011;38393;52.404;13.532;2023-06-14T13:07:34;4.18;;;2.03;;
52480;SDS011;38393;52.404;13.532;2023-06-14T13:10:00;3.30;;;1.80;;
52480;SDS011;38393;52.404;13.532;2023-06-14T13:12:25;2.30;;;1.60;;
52480;SDS011;38393;52.404;13.532;2023-06-14T13:14:51;3.20;;;2.03;;
52480;SDS011;38393;52.404;13.532;2023-06-14T13:17:17;3.00;;;1.73;;
52480;SDS011;38393;52.404;13.532;2023-06-14T13:19:42;3.33;;;1.95;;
52480;SDS011;38393;52.404;13.532;2023-06-14T13:22:08;2.38;;;1.60;;
52480;SDS011;38393;52.404;13.532;2023-06-14T13:24:33;3.72;;;1.80;;
52480;SDS011;38393;52.404;13.532;2023-06-14T13:26:59;4.53;;;1.98;;
52480;SDS011;38393;52.404;13.532;2023-06-14T13:29:25;2.67;;;1.55;;
52480;SDS011;38393;52.404;13.532;2023-06-14T13:31:51;2.45;;;1.45;;
52480;SDS011;38393;52.404;13.532;2023-06-14T13:34:17;4.75;;;1.85;;
52480;SDS011;38393;52.404;13.532;2023-06-14T13:36:43;2.60;;;1.60;;
52480;SDS011;38393;52.404;13.532;2023-06-14T13:39:08;3.58;;;1.98;;
52480;SDS011;38393;52.404;13.532;2023-06-14T13:41:34;2.97;;;1.77;;
52480;SDS011;38393;52.404;13.532;2023-06-14T13:44:00;4.75;;;1.90;;
52480;SDS011;38393;52.404;13.532;2023-06-14T13:46:26;3.08;;;1.83;;
52480;SDS011;38393;52.404;13.532;2023-06-14T13:48:52;4.35;;;1.98;;
52480;SDS011;38393;52.404;13.532;2023-06-14T13:51:18;5.10;;;1.63;;
52480;SDS011;38393;52.404;13.532;2023-06-14T13:53:50;5.50;;;2.10;;
52480;SDS011;38393;52.404;13.532;2023-06-14T13:56:16;3.63;;;1.55;;
52480;SDS011;38393;52.404;13.532;2023-06-14T13:58:42;2.17;;;1.48;;
52480;SDS011;38393;52.404;13.532;2023-06-14T14:01:08;3.17;;;1.90;;
52480;SDS011;38393;52.404;13.532;2023-06-14T14:03:33;2.17;;;1.67;;
52480;SDS011;38393;52.404;13.532;2023-06-14T14:06:03;1.98;;;1.50;;
52480;SDS011;38393;52.404;13.532;2023-06-14T14:08:29;4.38;;;1.70;;
52480;SDS011;38393;52.404;13.532;2023-06-14T14:10:55;2.40;;;1.70;;
52480;SDS011;38393;52.404;13.532;2023-06-14T14:13:20;3.80;;;1.75;;
52480;SDS011;38393;52.404;13.532;2023-06-14T14:15:46;2.58;;;1.70;;
52480;SDS011;38393;52.404;13.532;2023-06-14T14:18:13;4.38;;;2.60;;
52480;SDS011;38393;52.404;13.532;2023-06-14T14:20:40;7.38;;;1.80;;
52480;SDS011;38393;52.404;13.532;2023-06-14T14:23:05;2.95;;;1.85;;
52480;SDS011;38393;52.404;13.532;2023-06-14T14:25:31;3.22;;;1.60;;
52480;SDS011;38393;52.404;13.532;2023-06-14T14:27:56;8.82;;;2.63;;
52480;SDS011;38393;52.404;13.532;2023-06-14T14:30:22;3.40;;;2.03;;
52480;SDS011;38393;52.404;13.532;2023-06-14T14:32:48;2.47;;;1.50;;
52480;SDS011;38393;52.404;13.532;2023-06-14T14:35:16;2.42;;;1.67;;
52480;SDS011;38393;52.404;13.532;2023-06-14T14:37:42;3.75;;;1.95;;